sensor_id;sensor_type;location;lat;lon;timestamp;P1;durP1;ratioP1;P2;durP2;ratioP2
15858;SDS011;8029;52.202;7.308;2022-09-09T00:02:18;0.98;;;0.68;;
15858;SDS011;8029;52.202;7.308;2022-09-09T00:04:58;1.42;;;1.00;;
15858;SDS011;8029;52.202;7.308;2022-09-09T00:15:21;0.85;;;0.77;;
15858;SDS011;8029;52.202;7.308;2022-09-09T00:20:16;1.35;;;0.95;;
15858;SDS011;8029;52.202;7.308;2022-09-09T00:22:47;0.60;;;0.60;;
15858;SDS011;8029;52.202;7.308;2022-09-09T00:25:35;3.67;;;1.02;;
15858;SDS011;8029;52.202;7.308;2022-09-09T00:28:02;1.02;;;0.90;;
15858;SDS011;8029;52.202;7.308;2022-09-09T00:30:31;0.60;;;0.60;;
15858;SDS011;8029;52.202;7.308;2022-09-09T00:33:00;0.80;;;0.80;;
15858;SDS011;8029;52.202;7.308;2022-09-09T00:35:49;0.63;;;0.63;;
15858;SDS011;8029;52.202;7.308;2022-09-09T00:38:15;1.80;;;0.80;;
15858;SDS011;8029;52.202;7.308;2022-09-09T00:40:50;0.63;;;0.63;;
15858;SDS011;8029;52.202;7.308;2022-09-09T00:43:36;0.98;;;0.90;;
15858;SDS011;8029;52.202;7.308;2022-09-09T00:51:13;1.25;;;1.10;;
15858;SDS011;8029;52.202;7.308;2022-09-09T00:56:55;1.27;;;1.17;;
15858;SDS011;8029;52.202;7.308;2022-09-09T00:59:46;1.52;;;1.23;;
15858;SDS011;8029;52.202;7.308;2022-09-09T01:02:19;1.33;;;1.20;;
15858;SDS011;8029;52.202;7.308;2022-09-09T01:04:47;1.42;;;1.15;;
15858;SDS011;8029;52.202;7.308;2022-09-09T01:07:17;1.90;;;1.50;;
15858;SDS011;8029;52.202;7.308;2022-09-09T01:12:23;2.05;;;1.20;;
15858;SDS011;8029;52.202;7.308;2022-09-09T01:14:51;1.15;;;1.05;;
15858;SDS011;8029;52.202;7.308;2022-09-09T01:17:35;0.90;;;0.90;;
15858;SDS011;8029;52.202;7.308;2022-09-09T01:25:22;0.93;;;0.90;;
15858;SDS011;8029;52.202;7.308;2022-09-09T01:27:53;1.42;;;0.80;;
15858;SDS011;8029;52.202;7.308;2022-09-09T01:30:20;1.63;;;0.50;;
15858;SDS011;8029;52.202;7.308;2022-09-09T01:32:49;1.17;;;0.98;;
15858;SDS011;8029;52.202;7.308;2022-09-09T01:37:41;0.45;;;0.45;;
15858;SDS011;8029;52.202;7.308;2022-09-09T01:40:07;1.05;;;0.77;;
15858;SDS011;8029;52.202;7.308;2022-09-09T01:42:33;0.28;;;0.28;;
15858;SDS011;8029;52.202;7.308;2022-09-09T01:44:59;0.95;;;0.70;;
15858;SDS011;8029;52.202;7.308;2022-09-09T01:47:25;0.93;;;0.70;;
15858;SDS011;8029;52.202;7.308;2022-09-09T01:49:51;0.20;;;0.20;;
15858;SDS011;8029;52.202;7.308;2022-09-09T01:52:17;27.60;;;1.27;;
15858;SDS011;8029;52.202;7.308;2022-09-09T01:54:43;0.82;;;0.65;;
15858;SDS011;8029;52.202;7.308;2022-09-09T01:57:17;0.40;;;0.40;;
15858;SDS011;8029;52.202;7.308;2022-09-09T02:00:01;2.92;;;0.95;;
15858;SDS011;8029;52.202;7.308;2022-09-09T02:10:35;1.95;;;0.77;;
15858;SDS011;8029;52.202;7.308;2022-09-09T02:13:13;0.57;;;0.57;;
15858;SDS011;8029;52.202;7.308;2022-09-09T02:16:00;0.25;;;0.25;;
15858;SDS011;8029;52.202;7.308;2022-09-09T02:18:34;0.60;;;0.60;;
15858;SDS011;8029;52.202;7.308;2022-09-09T02:21:00;0.60;;;0.47;;
15858;SDS011;8029;52.202;7.308;2022-09-09T02:23:28;0.68;;;0.57;;
15858;SDS011;8029;52.202;7.308;2022-09-09T02:25:54;0.50;;;0.50;;
15858;SDS011;8029;52.202;7.308;2022-09-09T02:28:21;0.88;;;0.85;;
15858;SDS011;8029;52.202;7.308;2022-09-09T02:30:50;7.78;;;0.88;;
15858;SDS011;8029;52.202;7.308;2022-09-09T02:33:20;0.57;;;0.57;;
15858;SDS011;8029;52.202;7.308;2022-09-09T02:35:47;0.95;;;0.75;;
15858;SDS011;8029;52.202;7.308;2022-09-09T02:38:14;0.63;;;0.60;;
15858;SDS011;8029;52.202;7.308;2022-09-09T02:40:40;1.98;;;1.05;;
15858;SDS011;8029;52.202;7.308;2022-09-09T02:43:06;0.82;;;0.75;;
15858;SDS011;8029;52.202;7.308;2022-09-09T02:45:41;0.57;;;0.57;;
15858;SDS011;8029;52.202;7.308;2022-09-09T02:48:10;0.43;;;0.43;;
15858;SDS011;8029;52.202;7.308;2022-09-09T02:50:45;3.83;;;1.90;;
15858;SDS011;8029;52.202;7.308;2022-09-09T02:53:18;1.13;;;1.00;;
15858;SDS011;8029;52.202;7.308;2022-09-09T02:55:47;1.38;;;1.27;;
15858;SDS011;8029;52.202;7.308;2022-09-09T02:58:14;3.25;;;1.48;;
15858;SDS011;8029;52.202;7.308;2022-09-09T03:00:42;1.95;;;1.10;;
15858;SDS011;8029;52.202;7.308;2022-09-09T03:03:09;1.67;;;1.52;;
15858;SDS011;8029;52.202;7.308;2022-09-09T03:05:35;3.92;;;2.00;;
15858;SDS011;8029;52.202;7.308;2022-09-09T03:08:02;1.27;;;0.95;;
15858;SDS011;8029;52.202;7.308;2022-09-09T03:10:28;1.73;;;1.63;;
15858;SDS011;8029;52.202;7.308;2022-09-09T03:12:54;1.30;;;1.20;;
15858;SDS011;8029;52.202;7.308;2022-09-09T03:15:20;1.90;;;1.05;;
15858;SDS011;8029;52.202;7.308;2022-09-09T03:17:46;2.58;;;1.33;;
15858;SDS011;8029;52.202;7.308;2022-09-09T03:20:12;1.33;;;1.23;;
15858;SDS011;8029;52.202;7.308;2022-09-09T03:22:38;1.55;;;1.40;;
15858;SDS011;8029;52.202;7.308;2022-09-09T03:25:04;1.20;;;1.20;;
15858;SDS011;8029;52.202;7.308;2022-09-09T03:27:30;1.50;;;1.40;;
15858;SDS011;8029;52.202;7.308;2022-09-09T03:29:56;1.95;;;1.85;;
15858;SDS011;8029;52.202;7.308;2022-09-09T03:32:22;2.22;;;1.58;;
15858;SDS011;8029;52.202;7.308;2022-09-09T03:34:51;1.58;;;1.48;;
15858;SDS011;8029;52.202;7.308;2022-09-09T03:37:17;1.20;;;1.10;;
15858;SDS011;8029;52.202;7.308;2022-09-09T03:39:43;4.68;;;2.53;;
15858;SDS011;8029;52.202;7.308;2022-09-09T03:42:11;2.00;;;1.77;;
15858;SDS011;8029;52.202;7.308;2022-09-09T03:44:39;2.55;;;2.35;;
15858;SDS011;8029;52.202;7.308;2022-09-09T03:47:05;2.47;;;2.20;;
15858;SDS011;8029;52.202;7.308;2022-09-09T03:49:31;1.90;;;1.80;;
15858;SDS011;8029;52.202;7.308;2022-09-09T03:51:57;3.55;;;2.60;;
15858;SDS011;8029;52.202;7.308;2022-09-09T03:54:26;2.83;;;2.25;;
15858;SDS011;8029;52.202;7.308;2022-09-09T03:56:52;2.42;;;2.22;;
15858;SDS011;8029;52.202;7.308;2022-09-09T03:59:18;2.97;;;2.40;;
15858;SDS011;8029;52.202;7.308;2022-09-09T04:01:46;2.08;;;1.85;;
15858;SDS011;8029;52.202;7.308;2022-09-09T04:04:12;2.83;;;2.63;;
15858;SDS011;8029;52.202;7.308;2022-09-09T04:06:38;2.58;;;2.40;;
15858;SDS011;8029;52.202;7.308;2022-09-09T04:09:04;3.00;;;2.80;;
15858;SDS011;8029;52.202;7.308;2022-09-09T04:11:30;3.67;;;2.85;;
15858;SDS011;8029;52.202;7.308;2022-09-09T04:13:56;3.72;;;2.53;;
15858;SDS011;8029;52.202;7.308;2022-09-09T04:16:22;2.95;;;2.63;;
15858;SDS011;8029;52.202;7.308;2022-09-09T04:18:48;5.03;;;2.40;;
15858;SDS011;8029;52.202;7.308;2022-09-09T04:21:14;2.40;;;2.20;;
15858;SDS011;8029;52.202;7.308;2022-09-09T04:23:41;2.45;;;2.25;;
15858;SDS011;8029;52.202;7.308;2022-09-09T04:26:07;2.35;;;2.15;;
15858;SDS011;8029;52.202;7.308;2022-09-09T04:28:34;3.20;;;2.75;;
15858;SDS011;8029;52.202;7.308;2022-09-09T04:31:04;1.70;;;1.60;;
15858;SDS011;8029;52.202;7.308;2022-09-09T04:33:31;2.35;;;2.15;;
15858;SDS011;8029;52.202;7.308;2022-09-09T04:35:57;3.17;;;2.40;;
15858;SDS011;8029;52.202;7.308;2022-09-09T04:38:22;2.45;;;2.25;;
15858;SDS011;8029;52.202;7.308;2022-09-09T04:40:49;1.77;;;1.67;;
15858;SDS011;8029;52.202;7.308;2022-09-09T04:43:16;2.45;;;2.20;;
15858;SDS011;8029;52.202;7.308;2022-09-09T04:45:44;3.60;;;2.63;;
15858;SDS011;8029;52.202;7.308;2022-09-09T04:48:12;3.28;;;2.35;;
15858;SDS011;8029;52.202;7.308;2022-09-09T04:50:38;2.15;;;2.03;;
15858;SDS011;8029;52.202;7.308;2022-09-09T04:53:05;2.30;;;2.10;;
15858;SDS011;8029;52.202;7.308;2022-09-09T04:55:31;3.78;;;2.75;;
15858;SDS011;8029;52.202;7.308;2022-09-09T04:58:02;2.85;;;2.58;;
15858;SDS011;8029;52.202;7.308;2022-09-09T05:00:29;3.67;;;3.28;;
15858;SDS011;8029;52.202;7.308;2022-09-09T05:02:55;3.22;;;2.92;;
15858;SDS011;8029;52.202;7.308;2022-09-09T05:05:21;2.63;;;2.38;;
15858;SDS011;8029;52.202;7.308;2022-09-09T05:07:47;2.53;;;2.33;;
15858;SDS011;8029;52.202;7.308;2022-09-09T05:10:14;7.65;;;3.47;;
15858;SDS011;8029;52.202;7.308;2022-09-09T05:12:41;2.50;;;2.10;;
15858;SDS011;8029;52.202;7.308;2022-09-09T05:15:07;3.15;;;2.67;;
15858;SDS011;8029;52.202;7.308;2022-09-09T05:17:34;2.42;;;2.05;;
15858;SDS011;8029;52.202;7.308;2022-09-09T05:20:00;2.28;;;2.08;;
15858;SDS011;8029;52.202;7.308;2022-09-09T05:22:28;2.95;;;2.25;;
15858;SDS011;8029;52.202;7.308;2022-09-09T05:24:55;2.85;;;2.60;;
15858;SDS011;8029;52.202;7.308;2022-09-09T05:27:21;2.50;;;2.08;;
15858;SDS011;8029;52.202;7.308;2022-09-09T05:29:47;4.03;;;3.03;;
15858;SDS011;8029;52.202;7.308;2022-09-09T05:32:13;2.33;;;2.13;;
15858;SDS011;8029;52.202;7.308;2022-09-09T05:34:41;2.58;;;2.38;;
15858;SDS011;8029;52.202;7.308;2022-09-09T05:37:07;2.33;;;2.13;;
15858;SDS011;8029;52.202;7.308;2022-09-09T05:39:33;3.67;;;2.45;;
15858;SDS011;8029;52.202;7.308;2022-09-09T05:42:01;1.55;;;1.45;;
15858;SDS011;8029;52.202;7.308;2022-09-09T05:44:27;1.75;;;1.65;;
15858;SDS011;8029;52.202;7.308;2022-09-09T05:46:54;8.48;;;2.00;;
15858;SDS011;8029;52.202;7.308;2022-09-09T05:49:20;1.55;;;1.45;;
15858;SDS011;8029;52.202;7.308;2022-09-09T05:51:46;2.92;;;2.22;;
15858;SDS011;8029;52.202;7.308;2022-09-09T05:54:13;4.18;;;2.53;;
15858;SDS011;8029;52.202;7.308;2022-09-09T05:56:40;6.30;;;2.80;;
15858;SDS011;8029;52.202;7.308;2022-09-09T05:59:06;2.42;;;1.70;;
15858;SDS011;8029;52.202;7.308;2022-09-09T06:01:33;1.58;;;1.48;;
15858;SDS011;8029;52.202;7.308;2022-09-09T06:04:00;5.15;;;2.10;;
15858;SDS011;8029;52.202;7.308;2022-09-09T06:06:27;4.07;;;2.20;;
15858;SDS011;8029;52.202;7.308;2022-09-09T06:08:54;2.55;;;1.83;;
15858;SDS011;8029;52.202;7.308;2022-09-09T06:11:25;1.83;;;1.67;;
15858;SDS011;8029;52.202;7.308;2022-09-09T06:13:51;2.55;;;1.65;;
15858;SDS011;8029;52.202;7.308;2022-09-09T06:16:19;1.97;;;1.70;;
15858;SDS011;8029;52.202;7.308;2022-09-09T06:18:48;3.20;;;1.83;;
15858;SDS011;8029;52.202;7.308;2022-09-09T06:21:18;7.35;;;1.98;;
15858;SDS011;8029;52.202;7.308;2022-09-09T06:23:45;2.42;;;1.55;;
15858;SDS011;8029;52.202;7.308;2022-09-09T06:26:13;1.48;;;1.42;;
15858;SDS011;8029;52.202;7.308;2022-09-09T06:28:39;2.03;;;1.80;;
15858;SDS011;8029;52.202;7.308;2022-09-09T06:31:08;1.77;;;1.42;;
15858;SDS011;8029;52.202;7.308;2022-09-09T06:33:34;3.22;;;1.83;;
15858;SDS011;8029;52.202;7.308;2022-09-09T06:36:02;2.38;;;1.73;;
15858;SDS011;8029;52.202;7.308;2022-09-09T06:38:31;1.48;;;1.00;;
15858;SDS011;8029;52.202;7.308;2022-09-09T06:40:58;3.95;;;1.42;;
15858;SDS011;8029;52.202;7.308;2022-09-09T06:43:24;9.93;;;1.70;;
15858;SDS011;8029;52.202;7.308;2022-09-09T06:46:01;1.77;;;1.42;;
15858;SDS011;8029;52.202;7.308;2022-09-09T06:48:27;5.35;;;1.63;;
15858;SDS011;8029;52.202;7.308;2022-09-09T06:51:00;7.13;;;1.52;;
15858;SDS011;8029;52.202;7.308;2022-09-09T06:53:27;3.25;;;2.20;;
15858;SDS011;8029;52.202;7.308;2022-09-09T06:55:53;2.28;;;1.88;;
15858;SDS011;8029;52.202;7.308;2022-09-09T06:58:19;1.60;;;1.50;;
15858;SDS011;8029;52.202;7.308;2022-09-09T07:00:47;4.78;;;2.17;;
15858;SDS011;8029;52.202;7.308;2022-09-09T07:03:13;1.58;;;1.48;;
15858;SDS011;8029;52.202;7.308;2022-09-09T07:05:39;0.93;;;0.93;;
15858;SDS011;8029;52.202;7.308;2022-09-09T07:08:05;3.13;;;1.75;;
15858;SDS011;8029;52.202;7.308;2022-09-09T07:10:31;13.25;;;1.85;;
15858;SDS011;8029;52.202;7.308;2022-09-09T07:12:59;1.85;;;1.45;;
15858;SDS011;8029;52.202;7.308;2022-09-09T07:15:26;2.65;;;1.75;;
15858;SDS011;8029;52.202;7.308;2022-09-09T07:17:52;5.40;;;2.25;;
15858;SDS011;8029;52.202;7.308;2022-09-09T07:20:18;2.85;;;2.00;;
15858;SDS011;8029;52.202;7.308;2022-09-09T07:22:45;1.40;;;1.30;;
15858;SDS011;8029;52.202;7.308;2022-09-09T07:25:11;2.10;;;1.83;;
15858;SDS011;8029;52.202;7.308;2022-09-09T07:27:37;4.40;;;2.10;;
15858;SDS011;8029;52.202;7.308;2022-09-09T07:30:03;1.55;;;1.20;;
15858;SDS011;8029;52.202;7.308;2022-09-09T07:32:29;2.47;;;1.80;;
15858;SDS011;8029;52.202;7.308;2022-09-09T07:34:55;5.43;;;1.40;;
15858;SDS011;8029;52.202;7.308;2022-09-09T07:37:23;1.75;;;1.48;;
15858;SDS011;8029;52.202;7.308;2022-09-09T07:39:49;1.73;;;1.33;;
15858;SDS011;8029;52.202;7.308;2022-09-09T07:42:16;1.88;;;1.27;;
15858;SDS011;8029;52.202;7.308;2022-09-09T07:44:42;1.40;;;1.15;;
15858;SDS011;8029;52.202;7.308;2022-09-09T07:47:07;7.93;;;1.75;;
15858;SDS011;8029;52.202;7.308;2022-09-09T07:49:33;3.38;;;1.77;;
15858;SDS011;8029;52.202;7.308;2022-09-09T07:51:59;1.75;;;1.40;;
15858;SDS011;8029;52.202;7.308;2022-09-09T07:54:25;5.70;;;1.50;;
15858;SDS011;8029;52.202;7.308;2022-09-09T07:56:51;1.48;;;1.20;;
15858;SDS011;8029;52.202;7.308;2022-09-09T07:59:18;15.63;;;1.88;;
15858;SDS011;8029;52.202;7.308;2022-09-09T08:01:45;3.75;;;1.88;;
15858;SDS011;8029;52.202;7.308;2022-09-09T08:04:18;4.65;;;1.70;;
15858;SDS011;8029;52.202;7.308;2022-09-09T08:06:54;3.75;;;1.80;;
15858;SDS011;8029;52.202;7.308;2022-09-09T08:09:21;5.85;;;1.83;;
15858;SDS011;8029;52.202;7.308;2022-09-09T08:11:50;1.23;;;1.15;;
15858;SDS011;8029;52.202;7.308;2022-09-09T08:14:16;2.70;;;1.65;;
15858;SDS011;8029;52.202;7.308;2022-09-09T08:16:43;2.10;;;1.35;;
15858;SDS011;8029;52.202;7.308;2022-09-09T08:19:09;2.55;;;1.88;;
15858;SDS011;8029;52.202;7.308;2022-09-09T08:21:37;1.63;;;1.30;;
15858;SDS011;8029;52.202;7.308;2022-09-09T08:24:04;2.85;;;2.10;;
15858;SDS011;8029;52.202;7.308;2022-09-09T08:26:31;4.53;;;1.98;;
15858;SDS011;8029;52.202;7.308;2022-09-09T08:28:58;1.95;;;1.45;;
15858;SDS011;8029;52.202;7.308;2022-09-09T08:31:28;3.75;;;2.10;;
15858;SDS011;8029;52.202;7.308;2022-09-09T08:33:55;1.73;;;1.30;;
15858;SDS011;8029;52.202;7.308;2022-09-09T08:36:22;1.45;;;1.30;;
15858;SDS011;8029;52.202;7.308;2022-09-09T08:38:49;7.75;;;2.17;;
15858;SDS011;8029;52.202;7.308;2022-09-09T08:41:34;2.25;;;1.40;;
15858;SDS011;8029;52.202;7.308;2022-09-09T08:46:52;2.70;;;1.40;;
15858;SDS011;8029;52.202;7.308;2022-09-09T08:52:15;2.28;;;2.03;;
15858;SDS011;8029;52.202;7.308;2022-09-09T08:54:43;1.63;;;1.52;;
15858;SDS011;8029;52.202;7.308;2022-09-09T08:57:11;5.65;;;2.00;;
15858;SDS011;8029;52.202;7.308;2022-09-09T08:59:39;5.13;;;2.60;;
15858;SDS011;8029;52.202;7.308;2022-09-09T09:04:42;3.60;;;2.13;;
15858;SDS011;8029;52.202;7.308;2022-09-09T09:07:18;3.28;;;2.22;;
15858;SDS011;8029;52.202;7.308;2022-09-09T09:10:10;6.63;;;2.17;;
15858;SDS011;8029;52.202;7.308;2022-09-09T09:12:42;3.53;;;2.13;;
15858;SDS011;8029;52.202;7.308;2022-09-09T09:15:25;4.47;;;2.70;;
15858;SDS011;8029;52.202;7.308;2022-09-09T09:17:51;2.53;;;2.33;;
15858;SDS011;8029;52.202;7.308;2022-09-09T09:20:18;9.55;;;2.97;;
15858;SDS011;8029;52.202;7.308;2022-09-09T09:22:50;3.20;;;1.80;;
15858;SDS011;8029;52.202;7.308;2022-09-09T09:25:17;3.20;;;1.95;;
15858;SDS011;8029;52.202;7.308;2022-09-09T09:28:03;2.15;;;1.83;;
15858;SDS011;8029;52.202;7.308;2022-09-09T09:30:41;13.48;;;2.53;;
15858;SDS011;8029;52.202;7.308;2022-09-09T09:33:14;4.07;;;3.03;;
15858;SDS011;8029;52.202;7.308;2022-09-09T09:35:41;3.17;;;2.28;;
15858;SDS011;8029;52.202;7.308;2022-09-09T09:38:26;8.20;;;1.88;;
15858;SDS011;8029;52.202;7.308;2022-09-09T09:40:56;2.42;;;1.90;;
15858;SDS011;8029;52.202;7.308;2022-09-09T09:43:27;3.75;;;2.35;;
15858;SDS011;8029;52.202;7.308;2022-09-09T09:45:53;6.50;;;2.17;;
15858;SDS011;8029;52.202;7.308;2022-09-09T09:48:20;2.47;;;1.70;;
15858;SDS011;8029;52.202;7.308;2022-09-09T09:50:56;6.95;;;3.00;;
15858;SDS011;8029;52.202;7.308;2022-09-09T09:53:27;2.22;;;1.98;;
15858;SDS011;8029;52.202;7.308;2022-09-09T09:55:58;2.47;;;1.98;;
15858;SDS011;8029;52.202;7.308;2022-09-09T09:58:25;3.55;;;2.20;;
15858;SDS011;8029;52.202;7.308;2022-09-09T10:00:53;3.38;;;1.92;;
15858;SDS011;8029;52.202;7.308;2022-09-09T10:03:32;1.42;;;1.15;;
15858;SDS011;8029;52.202;7.308;2022-09-09T10:06:02;2.78;;;1.60;;
15858;SDS011;8029;52.202;7.308;2022-09-09T10:08:28;4.70;;;2.20;;
15858;SDS011;8029;52.202;7.308;2022-09-09T10:19:00;1.25;;;1.15;;
15858;SDS011;8029;52.202;7.308;2022-09-09T10:24:12;3.10;;;2.10;;
15858;SDS011;8029;52.202;7.308;2022-09-09T10:36:46;1.65;;;0.88;;
15858;SDS011;8029;52.202;7.308;2022-09-09T10:39:30;2.92;;;1.00;;
15858;SDS011;8029;52.202;7.308;2022-09-09T10:42:04;1.00;;;0.95;;
15858;SDS011;8029;52.202;7.308;2022-09-09T10:49:55;0.90;;;0.65;;
15858;SDS011;8029;52.202;7.308;2022-09-09T10:52:37;1.17;;;1.08;;
15858;SDS011;8029;52.202;7.308;2022-09-09T11:00:03;0.90;;;0.90;;
15858;SDS011;8029;52.202;7.308;2022-09-09T11:02:31;1.45;;;1.35;;
15858;SDS011;8029;52.202;7.308;2022-09-09T11:05:00;0.93;;;0.80;;
15858;SDS011;8029;52.202;7.308;2022-09-09T11:07:49;1.02;;;0.85;;
15858;SDS011;8029;52.202;7.308;2022-09-09T11:10:17;1.85;;;1.17;;
15858;SDS011;8029;52.202;7.308;2022-09-09T11:12:44;0.85;;;0.65;;
15858;SDS011;8029;52.202;7.308;2022-09-09T11:17:46;2.20;;;1.45;;
15858;SDS011;8029;52.202;7.308;2022-09-09T11:20:14;2.15;;;1.55;;
15858;SDS011;8029;52.202;7.308;2022-09-09T11:22:48;0.80;;;0.80;;
15858;SDS011;8029;52.202;7.308;2022-09-09T11:25:16;1.92;;;1.15;;
15858;SDS011;8029;52.202;7.308;2022-09-09T11:27:48;1.98;;;1.20;;
15858;SDS011;8029;52.202;7.308;2022-09-09T11:36:08;6.30;;;1.25;;
15858;SDS011;8029;52.202;7.308;2022-09-09T11:38:52;1.25;;;1.00;;
15858;SDS011;8029;52.202;7.308;2022-09-09T11:41:19;0.85;;;0.60;;
15858;SDS011;8029;52.202;7.308;2022-09-09T11:43:47;10.63;;;1.70;;
15858;SDS011;8029;52.202;7.308;2022-09-09T11:46:14;1.13;;;1.05;;
15858;SDS011;8029;52.202;7.308;2022-09-09T11:48:45;1.58;;;1.30;;
15858;SDS011;8029;52.202;7.308;2022-09-09T11:51:13;1.65;;;0.82;;
15858;SDS011;8029;52.202;7.308;2022-09-09T11:53:49;4.57;;;1.23;;
15858;SDS011;8029;52.202;7.308;2022-09-09T11:56:26;0.82;;;0.82;;
15858;SDS011;8029;52.202;7.308;2022-09-09T11:58:53;2.60;;;1.52;;
15858;SDS011;8029;52.202;7.308;2022-09-09T12:03:55;5.25;;;1.15;;
15858;SDS011;8029;52.202;7.308;2022-09-09T12:06:30;0.60;;;0.60;;
15858;SDS011;8029;52.202;7.308;2022-09-09T12:09:12;0.73;;;0.50;;
15858;SDS011;8029;52.202;7.308;2022-09-09T12:11:42;1.30;;;0.80;;
15858;SDS011;8029;52.202;7.308;2022-09-09T12:14:18;2.05;;;0.73;;
15858;SDS011;8029;52.202;7.308;2022-09-09T12:16:44;0.95;;;0.60;;
15858;SDS011;8029;52.202;7.308;2022-09-09T12:21:51;5.25;;;0.98;;
15858;SDS011;8029;52.202;7.308;2022-09-09T12:24:41;1.58;;;1.05;;
15858;SDS011;8029;52.202;7.308;2022-09-09T12:32:24;0.68;;;0.68;;
15858;SDS011;8029;52.202;7.308;2022-09-09T12:35:02;4.93;;;0.90;;
15858;SDS011;8029;52.202;7.308;2022-09-09T12:37:46;0.98;;;0.98;;
15858;SDS011;8029;52.202;7.308;2022-09-09T12:42:43;1.75;;;0.95;;
15858;SDS011;8029;52.202;7.308;2022-09-09T12:45:17;8.18;;;1.65;;
15858;SDS011;8029;52.202;7.308;2022-09-09T12:47:51;1.08;;;0.70;;
15858;SDS011;8029;52.202;7.308;2022-09-09T12:50:23;2.00;;;0.75;;
15858;SDS011;8029;52.202;7.308;2022-09-09T12:52:51;1.05;;;1.02;;
15858;SDS011;8029;52.202;7.308;2022-09-09T12:55:19;1.20;;;0.70;;
15858;SDS011;8029;52.202;7.308;2022-09-09T12:57:46;1.15;;;0.77;;
15858;SDS011;8029;52.202;7.308;2022-09-09T13:00:16;0.70;;;0.63;;
15858;SDS011;8029;52.202;7.308;2022-09-09T13:02:46;1.50;;;1.17;;
15858;SDS011;8029;52.202;7.308;2022-09-09T13:05:34;3.05;;;0.93;;
15858;SDS011;8029;52.202;7.308;2022-09-09T13:08:01;0.73;;;0.65;;
15858;SDS011;8029;52.202;7.308;2022-09-09T13:10:28;0.95;;;0.80;;
15858;SDS011;8029;52.202;7.308;2022-09-09T13:12:55;0.88;;;0.82;;
15858;SDS011;8029;52.202;7.308;2022-09-09T13:15:23;1.08;;;0.63;;
15858;SDS011;8029;52.202;7.308;2022-09-09T13:17:55;0.70;;;0.70;;
15858;SDS011;8029;52.202;7.308;2022-09-09T13:20:21;0.68;;;0.40;;
15858;SDS011;8029;52.202;7.308;2022-09-09T13:22:48;1.45;;;1.25;;
15858;SDS011;8029;52.202;7.308;2022-09-09T13:25:22;5.95;;;0.77;;
15858;SDS011;8029;52.202;7.308;2022-09-09T13:27:56;1.67;;;1.02;;
15858;SDS011;8029;52.202;7.308;2022-09-09T13:30:24;0.80;;;0.80;;
15858;SDS011;8029;52.202;7.308;2022-09-09T13:38:13;1.85;;;0.75;;
15858;SDS011;8029;52.202;7.308;2022-09-09T13:40:40;0.88;;;0.88;;
15858;SDS011;8029;52.202;7.308;2022-09-09T13:43:10;1.27;;;1.15;;
15858;SDS011;8029;52.202;7.308;2022-09-09T13:45:41;1.33;;;1.02;;
15858;SDS011;8029;52.202;7.308;2022-09-09T13:48:10;2.47;;;1.20;;
15858;SDS011;8029;52.202;7.308;2022-09-09T13:50:38;0.93;;;0.82;;
15858;SDS011;8029;52.202;7.308;2022-09-09T13:53:07;3.00;;;1.55;;
15858;SDS011;8029;52.202;7.308;2022-09-09T13:55:33;0.93;;;0.70;;
15858;SDS011;8029;52.202;7.308;2022-09-09T13:58:00;2.53;;;1.17;;
15858;SDS011;8029;52.202;7.308;2022-09-09T14:00:28;2.47;;;0.70;;
15858;SDS011;8029;52.202;7.308;2022-09-09T14:02:54;2.53;;;1.00;;
15858;SDS011;8029;52.202;7.308;2022-09-09T14:05:21;1.48;;;0.88;;
15858;SDS011;8029;52.202;7.308;2022-09-09T14:07:49;0.70;;;0.70;;
15858;SDS011;8029;52.202;7.308;2022-09-09T14:10:15;1.33;;;1.02;;
15858;SDS011;8029;52.202;7.308;2022-09-09T14:12:41;0.95;;;0.90;;
15858;SDS011;8029;52.202;7.308;2022-09-09T14:15:07;1.35;;;1.15;;
15858;SDS011;8029;52.202;7.308;2022-09-09T14:17:35;0.85;;;0.80;;
15858;SDS011;8029;52.202;7.308;2022-09-09T14:20:04;1.52;;;1.13;;
15858;SDS011;8029;52.202;7.308;2022-09-09T14:22:34;1.00;;;0.60;;
15858;SDS011;8029;52.202;7.308;2022-09-09T14:25:00;1.27;;;0.70;;
15858;SDS011;8029;52.202;7.308;2022-09-09T14:27:26;1.23;;;0.98;;
15858;SDS011;8029;52.202;7.308;2022-09-09T14:29:55;1.25;;;0.98;;
15858;SDS011;8029;52.202;7.308;2022-09-09T14:32:22;0.57;;;0.57;;
15858;SDS011;8029;52.202;7.308;2022-09-09T14:34:48;1.08;;;0.63;;
15858;SDS011;8029;52.202;7.308;2022-09-09T14:37:15;2.33;;;0.95;;
15858;SDS011;8029;52.202;7.308;2022-09-09T14:39:41;0.77;;;0.70;;
15858;SDS011;8029;52.202;7.308;2022-09-09T14:42:09;1.00;;;0.73;;
15858;SDS011;8029;52.202;7.308;2022-09-09T14:44:36;2.08;;;1.00;;
15858;SDS011;8029;52.202;7.308;2022-09-09T14:47:03;0.73;;;0.65;;
15858;SDS011;8029;52.202;7.308;2022-09-09T14:49:29;1.00;;;0.55;;
15858;SDS011;8029;52.202;7.308;2022-09-09T14:51:55;0.60;;;0.60;;
15858;SDS011;8029;52.202;7.308;2022-09-09T14:54:21;2.30;;;0.95;;
15858;SDS011;8029;52.202;7.308;2022-09-09T14:56:48;0.70;;;0.60;;
15858;SDS011;8029;52.202;7.308;2022-09-09T14:59:14;0.30;;;0.30;;
15858;SDS011;8029;52.202;7.308;2022-09-09T15:01:40;0.73;;;0.70;;
15858;SDS011;8029;52.202;7.308;2022-09-09T15:04:06;0.60;;;0.60;;
15858;SDS011;8029;52.202;7.308;2022-09-09T15:06:33;1.52;;;0.77;;
15858;SDS011;8029;52.202;7.308;2022-09-09T15:09:00;0.47;;;0.47;;
15858;SDS011;8029;52.202;7.308;2022-09-09T15:11:27;1.50;;;0.93;;
15858;SDS011;8029;52.202;7.308;2022-09-09T15:13:55;6.13;;;0.77;;
15858;SDS011;8029;52.202;7.308;2022-09-09T15:16:23;0.60;;;0.60;;
15858;SDS011;8029;52.202;7.308;2022-09-09T15:18:53;1.02;;;0.90;;
15858;SDS011;8029;52.202;7.308;2022-09-09T15:21:20;1.17;;;1.00;;
15858;SDS011;8029;52.202;7.308;2022-09-09T15:23:47;4.43;;;0.90;;
15858;SDS011;8029;52.202;7.308;2022-09-09T15:26:13;0.95;;;0.70;;
15858;SDS011;8029;52.202;7.308;2022-09-09T15:28:40;0.85;;;0.77;;
15858;SDS011;8029;52.202;7.308;2022-09-09T15:31:09;0.70;;;0.45;;
15858;SDS011;8029;52.202;7.308;2022-09-09T15:33:36;1.05;;;0.77;;
15858;SDS011;8029;52.202;7.308;2022-09-09T15:38:40;4.35;;;1.25;;
15858;SDS011;8029;52.202;7.308;2022-09-09T15:41:06;1.42;;;0.88;;
15858;SDS011;8029;52.202;7.308;2022-09-09T15:43:32;0.55;;;0.52;;
15858;SDS011;8029;52.202;7.308;2022-09-09T15:45:59;0.65;;;0.60;;
15858;SDS011;8029;52.202;7.308;2022-09-09T15:48:30;0.73;;;0.70;;
15858;SDS011;8029;52.202;7.308;2022-09-09T15:51:03;3.28;;;0.98;;
15858;SDS011;8029;52.202;7.308;2022-09-09T15:53:30;1.35;;;1.25;;
15858;SDS011;8029;52.202;7.308;2022-09-09T15:55:57;3.17;;;1.15;;
15858;SDS011;8029;52.202;7.308;2022-09-09T15:58:24;1.30;;;1.10;;
15858;SDS011;8029;52.202;7.308;2022-09-09T16:00:50;1.20;;;1.10;;
15858;SDS011;8029;52.202;7.308;2022-09-09T16:03:16;1.15;;;0.98;;
15858;SDS011;8029;52.202;7.308;2022-09-09T16:05:42;1.73;;;1.25;;
15858;SDS011;8029;52.202;7.308;2022-09-09T16:08:08;1.75;;;0.98;;
15858;SDS011;8029;52.202;7.308;2022-09-09T16:10:34;2.28;;;0.60;;
15858;SDS011;8029;52.202;7.308;2022-09-09T16:13:01;0.73;;;0.68;;
15858;SDS011;8029;52.202;7.308;2022-09-09T16:15:27;0.73;;;0.70;;
15858;SDS011;8029;52.202;7.308;2022-09-09T16:17:53;4.72;;;1.30;;
15858;SDS011;8029;52.202;7.308;2022-09-09T16:20:19;0.70;;;0.70;;
15858;SDS011;8029;52.202;7.308;2022-09-09T16:22:45;1.05;;;0.90;;
15858;SDS011;8029;52.202;7.308;2022-09-09T16:25:11;1.00;;;0.88;;
15858;SDS011;8029;52.202;7.308;2022-09-09T16:27:37;0.77;;;0.77;;
15858;SDS011;8029;52.202;7.308;2022-09-09T16:30:03;4.43;;;1.33;;
15858;SDS011;8029;52.202;7.308;2022-09-09T16:32:29;0.60;;;0.60;;
15858;SDS011;8029;52.202;7.308;2022-09-09T16:34:55;0.85;;;0.80;;
15858;SDS011;8029;52.202;7.308;2022-09-09T16:37:21;1.10;;;1.00;;
15858;SDS011;8029;52.202;7.308;2022-09-09T16:39:47;1.92;;;1.00;;
15858;SDS011;8029;52.202;7.308;2022-09-09T16:42:15;2.15;;;0.90;;
15858;SDS011;8029;52.202;7.308;2022-09-09T16:44:41;0.73;;;0.73;;
15858;SDS011;8029;52.202;7.308;2022-09-09T16:47:07;2.45;;;0.63;;
15858;SDS011;8029;52.202;7.308;2022-09-09T16:49:33;0.45;;;0.45;;
15858;SDS011;8029;52.202;7.308;2022-09-09T16:51:59;0.80;;;0.80;;
15858;SDS011;8029;52.202;7.308;2022-09-09T16:54:25;1.75;;;0.82;;
15858;SDS011;8029;52.202;7.308;2022-09-09T16:56:53;1.17;;;0.68;;